createdAt,value
2022-11-24T06:33:10.145Z,6.80
2022-11-24T06:38:13.860Z,7.00
2022-11-24T06:43:17.318Z,3.30
2022-11-24T06:48:20.783Z,4.20
2022-11-24T06:53:24.994Z,3.80
2022-11-24T06:58:28.772Z,4.10
2022-11-24T07:03:32.339Z,5.20
2022-11-24T07:08:35.982Z,5.00
2022-11-24T07:13:39.504Z,2.20
2022-11-24T07:18:45.067Z,3.60
2022-11-24T07:23:52.544Z,4.40
2022-11-24T07:28:56.012Z,5.30
2022-11-24T07:33:59.610Z,4.20
2022-11-24T07:39:03.227Z,3.90
2022-11-24T07:44:06.936Z,3.90
2022-11-24T07:49:10.284Z,4.40
2022-11-24T07:54:13.653Z,3.40
2022-11-24T07:59:17.188Z,1.80
2022-11-24T08:04:20.532Z,4.00
2022-11-24T08:09:23.912Z,5.30
2022-11-24T08:14:27.337Z,3.70
2022-11-24T08:19:32.482Z,5.40
2022-11-24T08:24:36.521Z,2.60
2022-11-24T08:29:40.242Z,5.20
2022-11-24T08:34:43.639Z,3.40
2022-11-24T08:39:47.066Z,4.50
2022-11-24T08:44:58.684Z,1.90
2022-11-24T08:50:02.695Z,3.70
2022-11-24T08:55:07.430Z,5.50
2022-11-24T09:00:12.376Z,2.60
2022-11-24T09:05:43.697Z,4.40
2022-11-24T09:10:40.112Z,5.40
2022-11-24T09:15:43.826Z,5.70
2022-11-24T09:20:53.280Z,4.40
2022-11-24T09:26:06.788Z,3.60
2022-11-24T09:31:14.457Z,3.90
2022-11-24T09:36:18.545Z,4.20
2022-11-24T09:41:50.764Z,3.80
2022-11-24T09:47:10.274Z,4.20
2022-11-24T09:52:29.850Z,6.30
2022-11-24T09:57:38.999Z,5.10
2022-11-24T10:02:44.135Z,5.00
2022-11-24T10:08:23.143Z,3.40
2022-11-24T10:13:54.697Z,3.70
2022-11-24T10:19:16.768Z,5.90
2022-11-24T10:24:47.477Z,4.20
2022-11-24T10:29:53.364Z,8.60
2022-11-24T10:35:14.460Z,6.60
2022-11-24T10:41:02.460Z,7.10
2022-11-24T10:46:14.190Z,6.10
2022-11-24T10:51:48.017Z,13.20
2022-11-24T10:56:53.864Z,12.00
2022-11-24T11:01:57.517Z,7.00
2022-11-24T11:07:19.287Z,8.70
2022-11-24T11:12:45.754Z,9.80
2022-11-24T11:17:52.767Z,11.00
2022-11-24T11:22:59.150Z,8.70
2022-11-24T11:28:29.147Z,8.00
2022-11-24T11:39:00.392Z,5.70
2022-11-24T11:44:55.642Z,9.70
2022-11-24T11:49:59.539Z,9.30
2022-11-24T11:55:23.638Z,9.80
2022-11-24T12:00:28.712Z,8.40
2022-11-24T12:05:50.944Z,9.20
2022-11-24T12:11:07.569Z,6.80
2022-11-24T12:16:42.622Z,9.60
2022-11-24T12:22:26.322Z,10.40
2022-11-24T12:28:18.600Z,11.80
2022-11-24T12:34:02.608Z,7.40
2022-11-24T12:39:36.358Z,8.90
2022-11-24T12:45:08.834Z,8.70
2022-11-24T12:50:23.829Z,17.30
2022-11-24T12:55:30.468Z,12.90
2022-11-24T13:00:54.191Z,10.50
2022-11-24T13:06:07.816Z,7.40
2022-11-24T13:11:23.556Z,22.50
2022-11-24T13:19:26.624Z,16.50
2022-11-24T13:24:39.048Z,8.90
2022-11-24T13:29:51.359Z,11.60
2022-11-24T13:35:16.386Z,9.40
2022-11-24T13:41:12.871Z,8.70
2022-11-24T13:46:37.994Z,11.90
2022-11-24T13:51:47.645Z,7.50
2022-11-24T13:57:36.775Z,13.20
2022-11-24T14:02:49.357Z,9.60
2022-11-24T14:07:59.387Z,10.90
2022-11-24T14:13:31.303Z,14.90
2022-11-24T14:18:43.677Z,12.50
2022-11-24T14:23:57.299Z,13.10
2022-11-24T14:29:20.520Z,6.60
2022-11-24T14:34:33.684Z,9.20
2022-11-24T14:39:47.382Z,10.70
2022-11-24T14:45:01.232Z,9.70
2022-11-24T14:50:19.866Z,10.00
2022-11-24T14:55:32.660Z,4.90
2022-11-24T15:00:42.801Z,10.30
2022-11-24T15:06:02.517Z,9.60
2022-11-24T15:11:12.530Z,18.80
2022-11-24T15:16:26.771Z,30.50
2022-11-24T15:21:38.878Z,29.90
2022-11-24T15:26:49.186Z,9.60
2022-11-24T15:31:59.988Z,17.70
2022-11-24T15:37:09.554Z,13.60
2022-11-24T15:42:19.275Z,11.80
2022-11-24T15:47:28.862Z,9.40
2022-11-24T15:52:38.951Z,8.80
2022-11-24T15:57:49.040Z,10.90
2022-11-24T16:03:02.062Z,9.00
2022-11-24T16:08:22.792Z,10.20
2022-11-24T16:13:32.306Z,11.30
2022-11-24T16:18:42.063Z,8.40
2022-11-24T16:23:52.087Z,11.20
2022-11-24T16:29:01.518Z,11.40
2022-11-24T16:34:11.180Z,10.70
2022-11-24T16:39:21.016Z,10.10
2022-11-24T16:44:30.565Z,9.40
2022-11-24T16:49:40.523Z,11.40
2022-11-24T16:54:50.243Z,10.90
2022-11-24T16:59:59.874Z,7.90
2022-11-24T17:05:11.428Z,7.70
2022-11-24T17:10:21.318Z,10.40
2022-11-24T17:15:35.534Z,5.40
2022-11-24T17:20:47.904Z,13.10
2022-11-24T17:26:02.069Z,13.80
2022-11-24T17:31:22.537Z,14.00
2022-11-24T17:36:34.603Z,15.00
2022-11-24T17:41:44.215Z,9.30
2022-11-24T17:46:54.484Z,14.30
2022-11-24T17:52:04.055Z,9.30
2022-11-24T17:57:13.879Z,10.50
2022-11-24T18:02:23.639Z,9.50
2022-11-24T18:07:33.216Z,11.10
2022-11-24T18:12:43.044Z,10.00
2022-11-24T18:17:54.537Z,14.70
2022-11-24T18:23:06.131Z,10.70
2022-11-24T18:28:16.413Z,12.50
2022-11-24T18:33:25.992Z,10.90
2022-11-24T18:38:38.105Z,9.40
2022-11-24T18:43:47.982Z,14.60
2022-11-24T18:48:58.221Z,7.90
2022-11-24T18:54:08.177Z,12.50
2022-11-24T18:59:17.767Z,22.60
2022-11-24T19:04:27.550Z,10.30
2022-11-24T19:09:38.045Z,12.70
2022-11-24T19:14:47.502Z,21.50
2022-11-24T19:19:57.149Z,22.00
2022-11-24T19:25:11.019Z,12.90
2022-11-24T19:30:23.118Z,15.00
2022-11-24T19:35:32.639Z,10.50
2022-11-24T19:40:42.052Z,12.60
2022-11-24T19:45:51.525Z,11.40
2022-11-24T19:51:06.083Z,9.80
2022-11-24T19:56:18.377Z,14.60
2022-11-24T20:01:31.241Z,16.10
2022-11-24T20:06:43.468Z,13.20
2022-11-24T20:11:52.851Z,16.70
2022-11-24T20:17:02.422Z,13.40
2022-11-24T20:22:11.919Z,19.00
2022-11-24T20:27:21.414Z,17.40
2022-11-24T20:32:33.539Z,10.80
2022-11-24T20:43:10.056Z,7.90
2022-11-24T20:48:19.735Z,14.30
2022-11-24T20:53:29.578Z,11.00
2022-11-24T20:58:40.294Z,7.30
2022-11-24T21:03:55.554Z,8.80
2022-11-24T21:09:05.662Z,8.60
2022-11-24T21:14:15.399Z,6.70
2022-11-24T21:19:25.246Z,8.20
2022-11-24T21:24:35.001Z,8.70
2022-11-24T21:29:44.880Z,6.50
2022-11-24T21:34:54.402Z,5.80
2022-11-24T21:40:04.020Z,6.00
2022-11-24T21:45:14.974Z,7.70
2022-11-24T21:50:24.716Z,7.10
2022-11-24T21:55:34.428Z,7.10
2022-11-24T22:00:44.229Z,5.10
2022-11-24T22:06:00.288Z,6.80
2022-11-24T22:11:14.089Z,6.10
2022-11-24T22:16:26.293Z,6.40
2022-11-24T22:21:36.039Z,7.00
2022-11-24T22:26:45.564Z,8.90
2022-11-24T22:31:55.205Z,9.40
2022-11-24T22:37:04.839Z,9.40
2022-11-24T22:42:14.291Z,8.20
2022-11-24T22:47:23.836Z,8.20
2022-11-24T22:52:34.030Z,6.00
2022-11-24T22:57:47.971Z,5.90
2022-11-24T23:02:59.048Z,5.50
2022-11-24T23:08:09.733Z,6.70
2022-11-24T23:13:19.393Z,5.80
2022-11-24T23:18:29.283Z,4.70
2022-11-24T23:23:39.410Z,8.10
2022-11-24T23:28:49.206Z,7.80
2022-11-24T23:33:59.265Z,6.10
2022-11-24T23:39:13.979Z,6.40
2022-11-24T23:44:23.798Z,5.00
2022-11-24T23:49:33.883Z,5.50
